Time;durP1;ratioP1;P1;durP2;ratioP2;P2;SDS_P1;SDS_P2;PMS_P1;PMS_P2;Temp;Humidity;BMP_temperature;BMP_pressure;BME280_temperature;BME280_humidity;BME280_pressure;Samples;Min_cycle;Max_cycle;Signal;HPM_P1;HPM_P2
2021/03/18 00:01:49;;;;;;;;;;;20.20;28.60;;;;;;478661;249;1044;-66
2021/03/18 00:03:50;;;;;;;;;;;20.10;28.70;;;;;;478604;249;1118;-66
2021/03/18 00:05:51;;;;;;;;;;;20.10;28.60;;;;;;478715;249;1115;-66
2021/03/18 00:07:52;;;;;;;;;;;20.20;28.60;;;;;;478600;249;1327;-66
2021/03/18 00:09:54;;;;;;;;;;;20.20;28.60;;;;;;478712;249;1267;-66
2021/03/18 00:11:55;;;;;;;;;;;20.20;28.60;;;;;;478506;249;1083;-66
2021/03/18 00:13:56;;;;;;;;;;;20.20;28.60;;;;;;478639;249;2146;-66
2021/03/18 00:15:58;;;;;;;;;;;20.20;28.70;;;;;;478478;249;1150;-66
2021/03/18 00:17:59;;;;;;;;;;;20.10;28.80;;;;;;478578;249;1178;-66
2021/03/18 00:20:00;;;;;;;;;;;20.10;28.70;;;;;;478651;249;1050;-67
2021/03/18 00:22:01;;;;;;;;;;;20.30;28.70;;;;;;478467;249;1171;-66
2021/03/18 00:24:03;;;;;;;;;;;20.10;28.60;;;;;;478546;249;1088;-66
2021/03/18 00:26:04;;;;;;;;;;;20.20;28.70;;;;;;478520;249;1477;-66
2021/03/18 00:28:05;;;;;;;;;;;20.30;28.70;;;;;;478486;249;1053;-66
2021/03/18 00:30:07;;;;;;;;;;;20.30;28.60;;;;;;478804;249;1345;-66
2021/03/18 00:32:08;;;;;;;;;;;20.30;28.60;;;;;;478527;249;1222;-66
2021/03/18 00:34:09;;;;;;;;;;;20.30;28.60;;;;;;478468;249;2209;-66
2021/03/18 00:36:10;;;;;;;;;;;20.40;28.50;;;;;;478571;249;1333;-66
2021/03/18 00:38:12;;;;;;;;;;;20.40;28.50;;;;;;478463;249;1146;-66
2021/03/18 00:40:13;;;;;;;;;;;20.40;28.50;;;;;;478519;249;1088;-66
2021/03/18 00:42:14;;;;;;;;;;;20.50;28.40;;;;;;478530;249;1348;-66
2021/03/18 00:44:16;;;;;;;;;;;20.40;28.50;;;;;;478514;249;1154;-66
2021/03/18 00:46:19;;;;;;;;;;;20.30;28.50;;;;;;478544;249;1197;-66
2021/03/18 00:48:18;;;;;;;;;;;20.20;28.70;;;;;;478341;249;1514;-66
2021/03/18 00:50:19;;;;;;;;;;;20.20;28.70;;;;;;478742;249;1041;-66
2021/03/18 00:52:21;;;;;;;;;;;20.20;28.70;;;;;;478493;249;1235;-66
2021/03/18 00:54:22;;;;;;;;;;;20.30;28.60;;;;;;478571;249;2198;-66
2021/03/18 00:56:23;;;;;;;;;;;20.30;28.60;;;;;;478515;245;1521;-67
2021/03/18 00:58:24;;;;;;;;;;;20.30;28.60;;;;;;478605;249;1085;-66
2021/03/18 01:00:26;;;;;;;;;;;20.20;28.60;;;;;;478808;249;1188;-66
2021/03/18 01:02:27;;;;;;;;;;;20.10;28.60;;;;;;478610;249;1183;-66
2021/03/18 01:04:28;;;;;;;;;;;20.20;28.60;;;;;;478675;249;1040;-66
2021/03/18 01:06:30;;;;;;;;;;;20.20;28.50;;;;;;478521;245;1230;-66
2021/03/18 01:08:31;;;;;;;;;;;20.30;28.60;;;;;;478702;249;1059;-66
2021/03/18 01:10:32;;;;;;;;;;;20.30;28.40;;;;;;478733;249;1048;-66
2021/03/18 01:12:33;;;;;;;;;;;20.40;28.40;;;;;;478721;249;1071;-66
2021/03/18 01:14:35;;;;;;;;;;;20.20;28.40;;;;;;478508;249;2152;-66
2021/03/18 01:16:36;;;;;;;;;;;20.10;28.40;;;;;;478558;249;1182;-66
2021/03/18 01:18:37;;;;;;;;;;;20.10;28.50;;;;;;478800;249;1056;-66
2021/03/18 01:20:39;;;;;;;;;;;20.10;28.60;;;;;;478583;249;1117;-66
2021/03/18 01:22:40;;;;;;;;;;;20.10;28.60;;;;;;478649;249;1303;-67
2021/03/18 01:24:41;;;;;;;;;;;20.10;28.60;;;;;;478690;249;1103;-66
2021/03/18 01:26:42;;;;;;;;;;;20.10;28.50;;;;;;478601;249;1200;-66
2021/03/18 01:28:44;;;;;;;;;;;20.10;28.40;;;;;;478531;249;1051;-66
2021/03/18 01:30:45;;;;;;;;;;;20.20;28.40;;;;;;478742;249;1537;-66
2021/03/18 01:32:46;;;;;;;;;;;20.10;28.50;;;;;;478425;249;1151;-66
2021/03/18 01:34:47;;;;;;;;;;;20.00;28.50;;;;;;478792;249;2151;-66
2021/03/18 01:36:49;;;;;;;;;;;20.10;28.50;;;;;;478454;249;1199;-66
2021/03/18 01:38:50;;;;;;;;;;;20.10;28.40;;;;;;478814;249;1057;-66
2021/03/18 01:40:51;;;;;;;;;;;20.10;28.40;;;;;;478544;249;1256;-66
2021/03/18 01:42:53;;;;;;;;;;;20.10;28.40;;;;;;478564;249;1157;-66
2021/03/18 01:44:54;;;;;;;;;;;20.20;28.30;;;;;;478589;249;1075;-66
2021/03/18 01:46:55;;;;;;;;;;;20.20;28.20;;;;;;478371;249;1230;-66
2021/03/18 01:48:57;;;;;;;;;;;20.20;28.20;;;;;;478517;249;1072;-66
2021/03/18 01:50:58;;;;;;;;;;;20.00;28.30;;;;;;478580;249;1348;-66
2021/03/18 01:52:59;;;;;;;;;;;20.00;28.40;;;;;;478551;249;1150;-66
2021/03/18 01:55:00;;;;;;;;;;;20.00;28.40;;;;;;478522;249;2214;-66
2021/03/18 01:57:02;;;;;;;;;;;19.90;28.40;;;;;;478498;249;1205;-66
2021/03/18 01:59:03;;;;;;;;;;;20.00;28.40;;;;;;478678;249;1041;-66
2021/03/18 02:01:04;;;;;;;;;;;19.90;28.40;;;;;;478458;249;1180;-66
2021/03/18 02:03:05;;;;;;;;;;;19.90;28.40;;;;;;478631;249;1211;-66
2021/03/18 02:05:07;;;;;;;;;;;19.90;28.40;;;;;;478582;249;1051;-66
2021/03/18 02:07:08;;;;;;;;;;;19.90;28.50;;;;;;478464;249;1468;-66
2021/03/18 02:09:09;;;;;;;;;;;19.80;28.50;;;;;;478500;249;1094;-66
2021/03/18 02:11:11;;;;;;;;;;;19.80;28.50;;;;;;478708;244;1322;-66
2021/03/18 02:13:12;;;;;;;;;;;19.90;28.50;;;;;;478684;249;1037;-66
2021/03/18 02:15:13;;;;;;;;;;;19.80;28.40;;;;;;478518;249;2189;-66
2021/03/18 02:17:14;;;;;;;;;;;19.80;28.40;;;;;;478492;249;1187;-66
2021/03/18 02:19:16;;;;;;;;;;;19.80;28.40;;;;;;478554;249;1065;-66
2021/03/18 02:21:17;;;;;;;;;;;19.90;28.40;;;;;;478657;249;1079;-66
2021/03/18 02:23:18;;;;;;;;;;;20.00;28.30;;;;;;478591;249;1053;-66
2021/03/18 02:25:19;;;;;;;;;;;20.00;28.20;;;;;;478694;249;1247;-66
2021/03/18 02:27:21;;;;;;;;;;;20.00;28.20;;;;;;478499;249;1081;-66
2021/03/18 02:29:22;;;;;;;;;;;19.80;28.30;;;;;;478565;249;1101;-66
2021/03/18 02:31:23;;;;;;;;;;;19.90;28.40;;;;;;478505;249;1237;-66
2021/03/18 02:33:25;;;;;;;;;;;19.90;28.30;;;;;;478537;249;1067;-66
2021/03/18 02:35:27;;;;;;;;;;;19.90;28.30;;;;;;478575;249;2172;-66
2021/03/18 02:37:28;;;;;;;;;;;19.80;28.30;;;;;;478614;249;1211;-66
2021/03/18 02:39:29;;;;;;;;;;;19.90;28.30;;;;;;478443;249;1242;-66
2021/03/18 02:41:30;;;;;;;;;;;19.90;28.20;;;;;;478433;249;1116;-66
2021/03/18 02:43:32;;;;;;;;;;;19.90;28.20;;;;;;478541;249;1106;-66
2021/03/18 02:45:33;;;;;;;;;;;19.80;28.30;;;;;;478581;249;1224;-66
2021/03/18 02:47:34;;;;;;;;;;;19.80;28.30;;;;;;478520;249;1162;-66
2021/03/18 02:49:36;;;;;;;;;;;19.70;28.30;;;;;;478533;249;1179;-66
2021/03/18 02:51:37;;;;;;;;;;;19.70;28.40;;;;;;478577;249;1671;-66
2021/03/18 02:53:38;;;;;;;;;;;19.80;28.20;;;;;;478685;249;1077;-66
2021/03/18 02:55:43;;;;;;;;;;;19.70;28.30;;;;;;478697;249;2187;-66
2021/03/18 02:57:41;;;;;;;;;;;19.70;28.30;;;;;;478298;249;1342;-66
2021/03/18 02:59:42;;;;;;;;;;;19.70;28.30;;;;;;478683;249;1047;-66
2021/03/18 03:01:43;;;;;;;;;;;19.70;28.40;;;;;;478637;249;1238;-66
2021/03/18 03:03:45;;;;;;;;;;;19.70;28.30;;;;;;478677;249;966;-66
2021/03/18 03:05:46;;;;;;;;;;;19.70;28.30;;;;;;478705;249;1232;-66
2021/03/18 03:07:48;;;;;;;;;;;19.70;28.30;;;;;;478481;249;1235;-66
2021/03/18 03:09:49;;;;;;;;;;;19.70;28.30;;;;;;478465;249;1077;-66
2021/03/18 03:11:50;;;;;;;;;;;19.80;28.20;;;;;;478611;249;1144;-66
2021/03/18 03:13:51;;;;;;;;;;;19.70;28.30;;;;;;478569;249;1090;-66
2021/03/18 03:15:53;;;;;;;;;;;19.70;28.30;;;;;;478523;249;2123;-66
2021/03/18 03:17:54;;;;;;;;;;;19.60;28.30;;;;;;478549;249;1117;-66
2021/03/18 03:19:56;;;;;;;;;;;19.60;28.40;;;;;;478545;249;1041;-66
2021/03/18 03:21:57;;;;;;;;;;;19.60;28.40;;;;;;478431;249;1115;-66
2021/03/18 03:23:58;;;;;;;;;;;19.60;28.40;;;;;;478634;249;1060;-66
2021/03/18 03:25:59;;;;;;;;;;;19.60;28.40;;;;;;478541;249;1087;-66
2021/03/18 03:28:01;;;;;;;;;;;19.60;28.40;;;;;;478569;249;1226;-66
2021/03/18 03:30:02;;;;;;;;;;;19.70;28.40;;;;;;478604;249;1156;-66
2021/03/18 03:32:03;;;;;;;;;;;19.70;28.30;;;;;;478499;249;1298;-66
2021/03/18 03:34:05;;;;;;;;;;;19.70;28.20;;;;;;478529;249;2195;-66
2021/03/18 03:36:06;;;;;;;;;;;19.80;28.20;;;;;;478512;249;1197;-66
2021/03/18 03:38:07;;;;;;;;;;;19.80;28.20;;;;;;478732;249;1018;-66
2021/03/18 03:40:08;;;;;;;;;;;19.90;28.10;;;;;;478590;249;1101;-66
2021/03/18 03:42:10;;;;;;;;;;;20.00;28.10;;;;;;478564;249;1036;-66
2021/03/18 03:44:11;;;;;;;;;;;20.00;28.00;;;;;;478693;249;1090;-66
2021/03/18 03:46:12;;;;;;;;;;;20.00;28.00;;;;;;478529;249;1215;-66
2021/03/18 03:48:13;;;;;;;;;;;20.00;27.90;;;;;;478619;249;1173;-66
2021/03/18 03:50:15;;;;;;;;;;;20.00;27.90;;;;;;478515;249;1242;-66
2021/03/18 03:52:16;;;;;;;;;;;20.00;28.00;;;;;;478557;249;1064;-66
2021/03/18 03:54:17;;;;;;;;;;;20.00;27.90;;;;;;478498;249;2142;-66
2021/03/18 03:56:19;;;;;;;;;;;20.00;28.00;;;;;;478557;249;1073;-66
2021/03/18 03:58:20;;;;;;;;;;;20.10;27.90;;;;;;478750;249;1041;-66
2021/03/18 04:00:21;;;;;;;;;;;20.20;27.80;;;;;;478567;249;1093;-66
2021/03/18 04:02:22;;;;;;;;;;;20.20;27.80;;;;;;478474;249;1122;-66
2021/03/18 04:04:24;;;;;;;;;;;20.20;27.80;;;;;;478532;249;1207;-66
2021/03/18 04:06:25;;;;;;;;;;;20.30;27.70;;;;;;478562;249;1453;-66
2021/03/18 04:08:26;;;;;;;;;;;20.30;27.70;;;;;;478922;249;1073;-66
2021/03/18 04:10:28;;;;;;;;;;;20.20;27.70;;;;;;478480;249;1060;-66
2021/03/18 04:12:29;;;;;;;;;;;20.30;27.70;;;;;;478574;249;1204;-66
2021/03/18 04:14:30;;;;;;;;;;;20.30;27.70;;;;;;478725;249;2190;-66
2021/03/18 04:16:31;;;;;;;;;;;20.30;27.70;;;;;;478650;249;1234;-66
2021/03/18 04:18:33;;;;;;;;;;;20.30;27.70;;;;;;478529;249;1302;-66
2021/03/18 04:20:36;;;;;;;;;;;20.40;27.60;;;;;;478491;249;1075;-66
2021/03/18 04:22:38;;;;;;;;;;;20.30;27.70;;;;;;478568;249;1173;-66
2021/03/18 04:24:39;;;;;;;;;;;20.40;27.60;;;;;;478660;249;1071;-66
2021/03/18 04:26:40;;;;;;;;;;;20.40;27.60;;;;;;478435;249;1225;-66
2021/03/18 04:28:42;;;;;;;;;;;20.40;27.70;;;;;;478799;249;1074;-66
2021/03/18 04:30:43;;;;;;;;;;;20.30;27.60;;;;;;478459;249;1327;-66
2021/03/18 04:32:44;;;;;;;;;;;20.40;27.60;;;;;;478510;249;1212;-67
2021/03/18 04:34:45;;;;;;;;;;;20.40;27.70;;;;;;478491;249;2151;-66
2021/03/18 04:36:47;;;;;;;;;;;20.40;27.70;;;;;;478592;249;1204;-66
2021/03/18 04:38:48;;;;;;;;;;;20.30;27.70;;;;;;478505;249;1045;-66
2021/03/18 04:40:49;;;;;;;;;;;20.30;27.70;;;;;;478478;249;1240;-66
2021/03/18 04:42:51;;;;;;;;;;;20.40;27.60;;;;;;478575;249;1195;-66
2021/03/18 04:44:52;;;;;;;;;;;20.40;27.60;;;;;;478525;249;1068;-66
2021/03/18 04:46:53;;;;;;;;;;;20.50;27.60;;;;;;478717;249;1107;-66
2021/03/18 04:48:55;;;;;;;;;;;20.40;27.50;;;;;;478562;249;1170;-66
2021/03/18 04:50:56;;;;;;;;;;;20.40;27.60;;;;;;478636;249;1060;-66
2021/03/18 04:52:57;;;;;;;;;;;20.40;27.50;;;;;;478540;249;1010;-66
2021/03/18 04:54:58;;;;;;;;;;;20.50;27.50;;;;;;478506;249;2135;-66
2021/03/18 04:57:00;;;;;;;;;;;20.50;27.50;;;;;;478526;249;1107;-66
2021/03/18 04:59:01;;;;;;;;;;;20.50;27.50;;;;;;478590;249;1079;-66
2021/03/18 05:01:02;;;;;;;;;;;20.50;27.50;;;;;;478472;249;1041;-66
2021/03/18 05:03:03;;;;;;;;;;;20.60;27.50;;;;;;478504;249;1277;-66
2021/03/18 05:05:05;;;;;;;;;;;20.40;27.60;;;;;;478902;249;1163;-66
2021/03/18 05:07:06;;;;;;;;;;;20.50;27.50;;;;;;478541;249;1081;-66
2021/03/18 05:09:07;;;;;;;;;;;20.40;27.60;;;;;;478477;249;1062;-66
2021/03/18 05:11:09;;;;;;;;;;;20.40;27.70;;;;;;478529;249;1076;-66
2021/03/18 05:13:10;;;;;;;;;;;20.30;27.70;;;;;;478566;249;1069;-66
2021/03/18 05:15:11;;;;;;;;;;;20.20;27.80;;;;;;478688;249;2190;-66
2021/03/18 05:17:12;;;;;;;;;;;20.30;27.80;;;;;;478441;249;1076;-66
2021/03/18 05:19:14;;;;;;;;;;;20.20;27.90;;;;;;478519;249;1118;-66
2021/03/18 05:21:15;;;;;;;;;;;20.10;27.90;;;;;;478612;249;1152;-66
2021/03/18 05:23:16;;;;;;;;;;;20.20;28.00;;;;;;478405;249;1136;-66
2021/03/18 05:25:17;;;;;;;;;;;20.10;27.90;;;;;;478511;249;1128;-66
2021/03/18 05:27:19;;;;;;;;;;;20.00;28.10;;;;;;478269;249;1057;-66
2021/03/18 05:29:20;;;;;;;;;;;20.00;28.10;;;;;;478410;249;1068;-66
2021/03/18 05:31:21;;;;;;;;;;;19.90;28.10;;;;;;478390;249;1118;-66
2021/03/18 05:33:23;;;;;;;;;;;19.90;28.20;;;;;;478316;249;1129;-66
2021/03/18 05:35:24;;;;;;;;;;;19.90;28.30;;;;;;478338;249;2147;-66
2021/03/18 05:37:25;;;;;;;;;;;19.90;28.30;;;;;;478355;249;1072;-66
2021/03/18 05:39:26;;;;;;;;;;;19.80;28.30;;;;;;478388;249;1170;-66
2021/03/18 05:41:28;;;;;;;;;;;19.80;28.30;;;;;;478341;249;1137;-66
2021/03/18 05:43:29;;;;;;;;;;;19.80;28.30;;;;;;478373;249;1129;-66
2021/03/18 05:45:30;;;;;;;;;;;19.80;28.40;;;;;;478332;249;1071;-66
2021/03/18 05:47:31;;;;;;;;;;;19.70;28.50;;;;;;478332;249;1098;-66
2021/03/18 05:49:33;;;;;;;;;;;19.70;28.50;;;;;;478362;249;1139;-66
2021/03/18 05:51:34;;;;;;;;;;;19.80;28.50;;;;;;478271;249;1087;-66
2021/03/18 05:53:35;;;;;;;;;;;19.70;28.50;;;;;;478342;249;1111;-66
2021/03/18 05:55:37;;;;;;;;;;;19.70;28.60;;;;;;478285;249;2194;-66
2021/03/18 05:57:38;;;;;;;;;;;19.70;28.50;;;;;;478247;249;1255;-66
2021/03/18 05:59:39;;;;;;;;;;;19.70;28.60;;;;;;478369;249;1087;-66
2021/03/18 06:01:40;;;;;;;;;;;19.60;28.60;;;;;;478196;249;1185;-65
2021/03/18 06:03:42;;;;;;;;;;;19.70;28.60;;;;;;478442;249;1192;-66
2021/03/18 06:05:43;;;;;;;;;;;19.70;28.60;;;;;;478378;249;1217;-66
2021/03/18 06:07:44;;;;;;;;;;;19.70;28.60;;;;;;478330;249;1140;-66
2021/03/18 06:09:46;;;;;;;;;;;19.80;28.50;;;;;;478253;249;1136;-66
2021/03/18 06:11:47;;;;;;;;;;;19.80;28.50;;;;;;478286;249;1063;-66
2021/03/18 06:13:48;;;;;;;;;;;19.80;28.40;;;;;;478065;249;1224;-66
2021/03/18 06:15:49;;;;;;;;;;;19.80;28.50;;;;;;478306;249;2142;-66
2021/03/18 06:17:51;;;;;;;;;;;19.80;28.50;;;;;;478286;249;1112;-66
2021/03/18 06:19:52;;;;;;;;;;;19.80;28.50;;;;;;478294;249;1284;-66
2021/03/18 06:21:54;;;;;;;;;;;19.80;28.60;;;;;;478214;249;1085;-66
2021/03/18 06:23:55;;;;;;;;;;;19.80;28.50;;;;;;478312;249;1334;-66
2021/03/18 06:25:56;;;;;;;;;;;19.70;28.60;;;;;;478253;249;1120;-66
2021/03/18 06:27:57;;;;;;;;;;;19.80;28.50;;;;;;478216;249;1106;-66
2021/03/18 06:29:59;;;;;;;;;;;19.80;28.60;;;;;;478249;249;1118;-66
2021/03/18 06:32:00;;;;;;;;;;;19.90;28.50;;;;;;478269;249;1061;-66
2021/03/18 06:34:01;;;;;;;;;;;19.90;28.50;;;;;;478164;249;1285;-66
2021/03/18 06:36:02;;;;;;;;;;;19.80;28.50;;;;;;478159;249;2154;-66
2021/03/18 06:38:04;;;;;;;;;;;19.80;28.50;;;;;;478117;249;1109;-66
2021/03/18 06:40:05;;;;;;;;;;;19.80;28.50;;;;;;478052;249;1177;-66
2021/03/18 06:42:07;;;;;;;;;;;19.90;28.50;;;;;;478208;249;1106;-66
2021/03/18 06:44:08;;;;;;;;;;;19.80;28.50;;;;;;478292;249;1120;-66
2021/03/18 06:46:09;;;;;;;;;;;19.70;28.60;;;;;;478196;249;1109;-66
2021/03/18 06:48:10;;;;;;;;;;;19.70;28.60;;;;;;478231;249;1100;-66
2021/03/18 06:50:12;;;;;;;;;;;19.80;28.60;;;;;;478168;249;1231;-66
2021/03/18 06:52:13;;;;;;;;;;;19.80;28.60;;;;;;478099;249;1091;-66
2021/03/18 06:54:14;;;;;;;;;;;19.70;28.60;;;;;;478167;249;1204;-66
2021/03/18 06:56:16;;;;;;;;;;;19.70;28.70;;;;;;478155;249;2142;-66
2021/03/18 06:58:17;;;;;;;;;;;19.70;28.60;;;;;;478218;249;1053;-66
2021/03/18 07:00:18;;;;;;;;;;;19.70;28.60;;;;;;478020;249;1095;-66
2021/03/18 07:02:19;;;;;;;;;;;19.80;28.70;;;;;;478060;249;1087;-66
2021/03/18 07:04:21;;;;;;;;;;;19.80;28.70;;;;;;478101;249;1131;-66
2021/03/18 07:06:22;;;;;;;;;;;19.80;28.70;;;;;;478009;249;1127;-66
2021/03/18 07:08:23;;;;;;;;;;;19.80;28.70;;;;;;477939;249;1099;-66
2021/03/18 07:10:24;;;;;;;;;;;19.70;28.70;;;;;;477827;249;1213;-66
2021/03/18 07:12:26;;;;;;;;;;;19.70;28.80;;;;;;477904;249;1124;-66
2021/03/18 07:14:27;;;;;;;;;;;19.70;28.80;;;;;;477815;249;1078;-66
2021/03/18 07:16:28;;;;;;;;;;;19.70;28.90;;;;;;477950;249;2186;-68
2021/03/18 07:18:30;;;;;;;;;;;19.60;28.90;;;;;;477903;249;1269;-68
2021/03/18 07:20:31;;;;;;;;;;;19.40;29.10;;;;;;477602;249;1318;-68
2021/03/18 07:22:32;;;;;;;;;;;19.20;29.30;;;;;;477792;249;1207;-68
2021/03/18 07:24:33;;;;;;;;;;;19.00;29.50;;;;;;477837;249;1082;-68
2021/03/18 07:26:35;;;;;;;;;;;19.00;29.70;;;;;;477839;249;1148;-68
2021/03/18 07:28:36;;;;;;;;;;;18.90;29.80;;;;;;477943;249;1145;-68
2021/03/18 07:30:37;;;;;;;;;;;19.00;29.70;;;;;;477829;246;1112;-68
2021/03/18 07:32:38;;;;;;;;;;;19.00;29.80;;;;;;477965;249;1111;-68
2021/03/18 07:34:40;;;;;;;;;;;18.90;29.70;;;;;;477965;249;1236;-68
2021/03/18 07:36:41;;;;;;;;;;;18.90;29.80;;;;;;477961;249;2203;-68
2021/03/18 07:38:43;;;;;;;;;;;18.80;29.80;;;;;;477820;249;1122;-68
2021/03/18 07:40:44;;;;;;;;;;;18.80;29.90;;;;;;477697;249;1102;-68
2021/03/18 07:42:45;;;;;;;;;;;18.80;29.90;;;;;;477761;249;1178;-68
2021/03/18 07:44:47;;;;;;;;;;;18.80;29.90;;;;;;477535;249;1196;-68
2021/03/18 07:46:48;;;;;;;;;;;18.80;29.90;;;;;;477406;249;1306;-68
2021/03/18 07:48:49;;;;;;;;;;;18.90;29.90;;;;;;477658;249;1089;-68
2021/03/18 07:50:51;;;;;;;;;;;18.90;29.80;;;;;;477580;249;1528;-68
2021/03/18 07:52:52;;;;;;;;;;;18.80;29.90;;;;;;477691;249;1172;-68
2021/03/18 07:54:53;;;;;;;;;;;18.80;29.90;;;;;;477647;249;1187;-68
2021/03/18 07:56:55;;;;;;;;;;;18.80;29.90;;;;;;477762;249;2140;-68
2021/03/18 07:58:56;;;;;;;;;;;18.80;29.80;;;;;;477709;249;1171;-68
2021/03/18 08:00:57;;;;;;;;;;;18.90;29.80;;;;;;477573;249;1173;-68
2021/03/18 08:02:58;;;;;;;;;;;19.20;29.70;;;;;;477645;249;1143;-68
2021/03/18 08:05:00;;;;;;;;;;;19.10;29.60;;;;;;477714;249;1166;-68
2021/03/18 08:07:01;;;;;;;;;;;19.10;29.70;;;;;;477699;249;1365;-68
2021/03/18 08:09:02;;;;;;;;;;;19.00;29.70;;;;;;477628;249;1223;-68
2021/03/18 08:11:04;;;;;;;;;;;19.10;29.70;;;;;;477480;249;1469;-68
2021/03/18 08:13:05;;;;;;;;;;;19.10;29.60;;;;;;477540;249;1093;-68
2021/03/18 08:15:06;;;;;;;;;;;19.10;29.60;;;;;;477450;249;1160;-67
2021/03/18 08:17:07;;;;;;;;;;;19.20;29.60;;;;;;477524;249;2148;-67
2021/03/18 08:19:09;;;;;;;;;;;19.20;29.60;;;;;;477741;249;1126;-67
2021/03/18 08:21:10;;;;;;;;;;;19.20;29.50;;;;;;477645;249;1231;-67
2021/03/18 08:23:11;;;;;;;;;;;19.30;29.50;;;;;;477666;249;1163;-67
2021/03/18 08:25:13;;;;;;;;;;;19.30;29.50;;;;;;477452;249;869;-67
2021/03/18 08:27:14;;;;;;;;;;;19.30;29.50;;;;;;476376;249;1163;-68
2021/03/18 08:29:15;;;;;;;;;;;19.30;29.50;;;;;;477562;249;844;-67
2021/03/18 08:31:16;;;;;;;;;;;19.40;29.40;;;;;;477464;249;1336;-67
2021/03/18 08:33:18;;;;;;;;;;;19.40;29.40;;;;;;477561;249;1105;-67
2021/03/18 08:35:19;;;;;;;;;;;19.40;29.40;;;;;;477593;249;1120;-68
2021/03/18 08:37:20;;;;;;;;;;;19.40;29.50;;;;;;477468;249;2183;-68
2021/03/18 08:39:21;;;;;;;;;;;19.50;29.40;;;;;;477587;249;1158;-68
2021/03/18 08:41:23;;;;;;;;;;;19.60;29.30;;;;;;477496;249;1454;-68
2021/03/18 08:43:24;;;;;;;;;;;19.50;29.20;;;;;;477438;249;1106;-68
2021/03/18 08:45:26;;;;;;;;;;;19.50;29.30;;;;;;477654;249;1284;-67
2021/03/18 08:47:27;;;;;;;;;;;19.70;29.20;;;;;;477193;249;1270;-68
2021/03/18 08:49:28;;;;;;;;;;;19.90;29.10;;;;;;476792;249;1225;-67
2021/03/18 08:51:29;;;;;;;;;;;19.80;29.00;;;;;;476697;249;1246;-67
2021/03/18 08:53:31;;;;;;;;;;;19.90;28.90;;;;;;477263;249;1116;-69
2021/03/18 08:55:32;;;;;;;;;;;20.00;28.90;;;;;;477411;249;1280;-69
2021/03/18 08:57:33;;;;;;;;;;;20.00;28.80;;;;;;477507;249;2182;-70
2021/03/18 08:59:35;;;;;;;;;;;20.10;28.80;;;;;;477994;249;1041;-70
2021/03/18 09:01:36;;;;;;;;;;;20.10;28.80;;;;;;477505;249;1058;-70
2021/03/18 09:03:37;;;;;;;;;;;20.20;28.70;;;;;;477488;249;1431;-70
2021/03/18 09:05:38;;;;;;;;;;;20.00;28.80;;;;;;477922;249;1243;-68
2021/03/18 09:07:40;;;;;;;;;;;20.00;28.80;;;;;;478152;249;1009;-68
2021/03/18 09:09:41;;;;;;;;;;;20.00;28.90;;;;;;477732;249;885;-67
2021/03/18 09:11:42;;;;;;;;;;;20.10;28.90;;;;;;478175;249;985;-67
2021/03/18 09:13:44;;;;;;;;;;;20.10;28.80;;;;;;477936;249;806;-66
2021/03/18 09:15:45;;;;;;;;;;;20.10;28.80;;;;;;478086;249;818;-69
2021/03/18 09:17:46;;;;;;;;;;;20.20;28.80;;;;;;477705;249;2198;-67
2021/03/18 09:19:47;;;;;;;;;;;20.20;28.80;;;;;;477831;249;811;-67
2021/03/18 09:21:49;;;;;;;;;;;20.20;28.80;;;;;;477915;249;1246;-67
2021/03/18 09:23:51;;;;;;;;;;;20.20;28.80;;;;;;477798;249;1067;-66
2021/03/18 09:25:51;;;;;;;;;;;20.20;28.80;;;;;;478013;249;1436;-66
2021/03/18 09:27:53;;;;;;;;;;;20.30;28.80;;;;;;477525;249;1002;-68
2021/03/18 09:29:54;;;;;;;;;;;20.50;28.60;;;;;;477702;249;872;-68
2021/03/18 09:31:55;;;;;;;;;;;20.50;28.60;;;;;;478017;249;1120;-67
2021/03/18 09:33:58;;;;;;;;;;;20.30;28.70;;;;;;478403;249;943;-67
2021/03/18 09:35:58;;;;;;;;;;;20.20;28.80;;;;;;477706;249;1331;-67
2021/03/18 09:37:59;;;;;;;;;;;20.10;28.90;;;;;;478396;249;2190;-64
2021/03/18 09:40:00;;;;;;;;;;;20.20;28.90;;;;;;478165;249;962;-67
2021/03/18 09:42:02;;;;;;;;;;;20.10;29.00;;;;;;477950;249;1161;-66
2021/03/18 09:44:03;;;;;;;;;;;20.00;29.00;;;;;;477922;249;994;-67
2021/03/18 09:46:04;;;;;;;;;;;20.00;29.20;;;;;;478072;244;1162;-66
2021/03/18 09:48:05;;;;;;;;;;;20.00;29.20;;;;;;478365;249;971;-67
2021/03/18 09:50:07;;;;;;;;;;;19.90;29.30;;;;;;477830;249;882;-67
2021/03/18 09:52:08;;;;;;;;;;;19.90;29.30;;;;;;477899;249;1101;-68
2021/03/18 09:54:09;;;;;;;;;;;19.80;29.30;;;;;;477748;249;948;-68
2021/03/18 09:56:10;;;;;;;;;;;19.80;29.40;;;;;;478143;249;2194;-67
2021/03/18 09:58:12;;;;;;;;;;;19.70;29.40;;;;;;478221;249;950;-68
2021/03/18 10:00:13;;;;;;;;;;;19.80;29.40;;;;;;477991;249;924;-67
2021/03/18 10:02:14;;;;;;;;;;;19.80;29.40;;;;;;478335;249;1128;-67
2021/03/18 10:04:17;;;;;;;;;;;19.90;29.40;;;;;;478409;249;1128;-68
2021/03/18 10:06:17;;;;;;;;;;;19.80;29.30;;;;;;477907;249;1559;-67
2021/03/18 10:08:18;;;;;;;;;;;19.80;29.40;;;;;;477976;249;949;-68
2021/03/18 10:10:19;;;;;;;;;;;19.80;29.50;;;;;;478362;249;1212;-70
2021/03/18 10:12:21;;;;;;;;;;;19.80;29.40;;;;;;478137;249;1172;-66
2021/03/18 10:14:22;;;;;;;;;;;19.80;29.30;;;;;;478042;249;1306;-65
2021/03/18 10:16:23;;;;;;;;;;;19.70;29.50;;;;;;478103;249;2207;-62
2021/03/18 10:18:24;;;;;;;;;;;19.70;29.50;;;;;;477577;249;893;-64
2021/03/18 10:20:27;;;;;;;;;;;19.60;29.60;;;;;;478500;249;1132;-65
2021/03/18 10:22:27;;;;;;;;;;;19.60;29.60;;;;;;477976;249;1298;-63
2021/03/18 10:24:28;;;;;;;;;;;19.60;29.70;;;;;;478037;249;835;-62
2021/03/18 10:26:29;;;;;;;;;;;19.60;29.60;;;;;;478311;249;1064;-61
2021/03/18 10:28:32;;;;;;;;;;;19.60;29.60;;;;;;478290;249;906;-61
2021/03/18 10:30:32;;;;;;;;;;;19.60;29.60;;;;;;477897;249;1268;-62
2021/03/18 10:32:34;;;;;;;;;;;19.60;29.60;;;;;;478408;249;1043;-62
2021/03/18 10:34:35;;;;;;;;;;;19.60;29.70;;;;;;477988;249;831;-61
2021/03/18 10:36:36;;;;;;;;;;;19.60;29.60;;;;;;478239;249;2202;-63
2021/03/18 10:38:38;;;;;;;;;;;19.60;29.50;;;;;;477822;249;1361;-69
2021/03/18 10:40:39;;;;;;;;;;;19.90;29.40;;;;;;477800;249;1106;-68
2021/03/18 10:42:40;;;;;;;;;;;20.20;28.90;;;;;;478202;249;946;-69
2021/03/18 10:44:43;;;;;;;;;;;20.50;28.60;;;;;;478354;249;970;-68
2021/03/18 10:46:43;;;;;;;;;;;20.60;28.40;;;;;;477800;249;1446;-64
2021/03/18 10:48:44;;;;;;;;;;;20.70;28.20;;;;;;477978;249;873;-64
2021/03/18 10:50:45;;;;;;;;;;;20.40;28.50;;;;;;477542;249;1061;-67
2021/03/18 10:52:47;;;;;;;;;;;20.40;28.60;;;;;;477596;249;1189;-68
2021/03/18 10:54:48;;;;;;;;;;;20.50;28.50;;;;;;477657;249;1231;-68
2021/03/18 10:56:49;;;;;;;;;;;20.50;28.50;;;;;;477724;249;2147;-68
2021/03/18 10:58:51;;;;;;;;;;;20.30;28.60;;;;;;478419;249;1106;-68
2021/03/18 11:00:52;;;;;;;;;;;20.20;28.70;;;;;;477560;249;1397;-69
2021/03/18 11:02:54;;;;;;;;;;;20.00;28.90;;;;;;478254;249;1182;-69
2021/03/18 11:04:55;;;;;;;;;;;19.80;29.10;;;;;;478053;249;877;-69
2021/03/18 11:06:56;;;;;;;;;;;20.00;29.00;;;;;;478125;249;1079;-69
2021/03/18 11:08:57;;;;;;;;;;;20.20;28.70;;;;;;477836;249;815;-69
2021/03/18 11:10:59;;;;;;;;;;;20.40;28.50;;;;;;477354;245;1492;-69
2021/03/18 11:13:00;;;;;;;;;;;20.50;28.30;;;;;;477673;249;854;-69
2021/03/18 11:15:01;;;;;;;;;;;20.60;28.20;;;;;;477910;249;765;-68
2021/03/18 11:17:02;;;;;;;;;;;20.60;28.10;;;;;;478021;249;2182;-68
2021/03/18 11:19:04;;;;;;;;;;;20.60;28.10;;;;;;477752;249;760;-69
2021/03/18 11:21:05;;;;;;;;;;;20.70;27.90;;;;;;477878;249;1369;-69
2021/03/18 11:23:06;;;;;;;;;;;20.70;27.80;;;;;;477745;249;1102;-69
2021/03/18 11:25:08;;;;;;;;;;;20.90;27.70;;;;;;477775;249;1145;-69
2021/03/18 11:27:09;;;;;;;;;;;20.80;27.60;;;;;;477894;249;960;-69
2021/03/18 11:29:10;;;;;;;;;;;21.00;27.60;;;;;;478308;249;1010;-69
2021/03/18 11:31:11;;;;;;;;;;;21.00;27.30;;;;;;477557;249;1427;-69
2021/03/18 11:33:13;;;;;;;;;;;21.00;27.40;;;;;;477579;249;1065;-69
2021/03/18 11:35:14;;;;;;;;;;;21.00;27.50;;;;;;477758;249;1106;-69
2021/03/18 11:37:15;;;;;;;;;;;20.90;27.50;;;;;;477699;249;2167;-69
2021/03/18 11:39:17;;;;;;;;;;;20.90;27.50;;;;;;477711;249;1128;-69
2021/03/18 11:41:18;;;;;;;;;;;20.90;27.50;;;;;;477331;249;1265;-69
2021/03/18 11:43:19;;;;;;;;;;;21.00;27.50;;;;;;477514;249;1227;-69
2021/03/18 11:45:20;;;;;;;;;;;21.00;27.50;;;;;;477605;249;1368;-69
2021/03/18 11:47:22;;;;;;;;;;;20.90;27.50;;;;;;477415;249;1270;-69
2021/03/18 11:49:24;;;;;;;;;;;20.90;27.60;;;;;;477588;249;1063;-69
2021/03/18 11:51:24;;;;;;;;;;;20.90;27.70;;;;;;477509;249;1248;-69
2021/03/18 11:53:26;;;;;;;;;;;20.90;27.70;;;;;;477667;249;1226;-69
2021/03/18 11:55:27;;;;;;;;;;;21.00;27.70;;;;;;477324;249;980;-69
2021/03/18 11:57:28;;;;;;;;;;;20.90;27.80;;;;;;477218;249;2153;-69